createdAt,value
2023-06-30T00:02:35.909Z,7.30
2023-06-30T00:06:39.794Z,6.87
2023-06-30T00:10:43.778Z,8.30
2023-06-30T00:14:48.952Z,6.70
2023-06-30T00:18:57.240Z,7.20
2023-06-30T00:23:01.187Z,6.87
2023-06-30T00:27:05.402Z,6.30
2023-06-30T00:31:10.788Z,6.90
2023-06-30T00:35:14.699Z,6.60
2023-06-30T00:39:19.826Z,7.10
2023-06-30T00:43:23.690Z,8.00
2023-06-30T00:47:29.246Z,7.20
2023-06-30T00:51:34.083Z,6.60
2023-06-30T00:55:38.284Z,7.37
2023-06-30T00:59:42.495Z,8.00
2023-06-30T01:03:53.422Z,8.23
2023-06-30T01:08:19.654Z,7.00
2023-06-30T01:12:25.008Z,7.53
2023-06-30T01:16:31.280Z,7.00
2023-06-30T01:20:41.527Z,9.13
2023-06-30T01:24:50.425Z,7.90
2023-06-30T01:28:54.572Z,7.37
2023-06-30T01:32:59.995Z,6.90
2023-06-30T01:37:05.817Z,7.37
2023-06-30T01:41:10.521Z,8.30
2023-06-30T01:45:15.312Z,7.63
2023-06-30T01:49:20.246Z,7.63
2023-06-30T01:53:25.884Z,7.10
2023-06-30T01:57:29.529Z,7.43
2023-06-30T02:01:33.492Z,7.13
2023-06-30T02:05:37.526Z,8.10
2023-06-30T02:09:48.528Z,8.13
2023-06-30T02:13:53.298Z,6.90
2023-06-30T02:17:57.967Z,8.37
2023-06-30T02:22:01.863Z,10.27
2023-06-30T02:26:07.112Z,8.43
2023-06-30T02:30:11.762Z,8.13
2023-06-30T02:34:15.990Z,8.17
2023-06-30T02:38:20.005Z,7.93
2023-06-30T02:42:25.332Z,7.90
2023-06-30T02:46:29.343Z,8.27
2023-06-30T02:50:34.405Z,8.17
2023-06-30T02:54:38.486Z,7.77
2023-06-30T02:58:43.843Z,7.37
2023-06-30T03:02:47.979Z,8.10
2023-06-30T03:06:53.043Z,8.17
2023-06-30T03:10:56.876Z,7.87
2023-06-30T03:15:02.399Z,7.80
2023-06-30T03:19:06.092Z,7.53
2023-06-30T03:23:09.984Z,7.97
2023-06-30T03:27:13.837Z,8.20
2023-06-30T03:31:20.547Z,8.17
2023-06-30T03:35:24.896Z,8.50
2023-06-30T03:39:28.724Z,8.50
2023-06-30T03:43:34.283Z,8.13
2023-06-30T03:47:39.774Z,7.80
2023-06-30T03:51:43.646Z,8.97
2023-06-30T03:55:47.507Z,8.33
2023-06-30T03:59:51.412Z,9.03
2023-06-30T04:03:56.566Z,7.50
2023-06-30T04:08:02.583Z,8.50
2023-06-30T04:12:07.273Z,7.80
2023-06-30T04:16:11.357Z,9.20
2023-06-30T04:20:17.234Z,8.77
2023-06-30T04:24:21.607Z,9.10
2023-06-30T04:28:25.216Z,8.60
2023-06-30T04:32:29.084Z,8.97
2023-06-30T04:36:34.185Z,8.30
2023-06-30T04:40:38.110Z,7.43
2023-06-30T04:44:41.823Z,7.70
2023-06-30T04:48:46.662Z,8.33
2023-06-30T04:52:51.735Z,8.77
2023-06-30T04:56:57.949Z,7.43
2023-06-30T05:01:02.075Z,7.40
2023-06-30T05:05:05.920Z,12.63
2023-06-30T05:09:11.248Z,8.93
2023-06-30T05:13:14.856Z,8.20
2023-06-30T05:17:18.694Z,7.90
2023-06-30T05:21:22.654Z,7.67
2023-06-30T05:25:27.812Z,17.50
2023-06-30T05:29:33.424Z,8.07
2023-06-30T05:33:37.414Z,14.37
2023-06-30T05:37:41.156Z,8.80
2023-06-30T05:41:47.259Z,8.20
2023-06-30T05:45:51.380Z,7.90
2023-06-30T05:49:55.324Z,7.67
2023-06-30T05:54:02.975Z,7.47
2023-06-30T05:58:08.092Z,7.23
2023-06-30T06:02:12.323Z,6.97
2023-06-30T06:06:16.356Z,7.33
2023-06-30T06:10:20.049Z,6.53
2023-06-30T06:14:27.440Z,7.10
2023-06-30T06:18:31.623Z,6.57
2023-06-30T06:22:35.610Z,7.87
2023-06-30T06:26:39.293Z,6.00
2023-06-30T06:30:44.547Z,5.60
2023-06-30T06:34:48.586Z,6.47
2023-06-30T06:38:52.238Z,9.00
2023-06-30T06:42:56.881Z,6.07
2023-06-30T06:47:39.012Z,7.60
2023-06-30T06:51:45.184Z,5.80
2023-06-30T06:55:50.255Z,5.97
2023-06-30T06:59:54.014Z,6.27
2023-06-30T07:03:57.771Z,10.90
2023-06-30T07:08:03.100Z,7.43
2023-06-30T07:12:07.776Z,6.80
2023-06-30T07:16:12.556Z,5.30
2023-06-30T07:20:16.256Z,6.43
2023-06-30T07:24:21.409Z,6.40
2023-06-30T07:28:25.118Z,6.70
2023-06-30T07:32:28.861Z,6.50
2023-06-30T07:36:32.850Z,6.93
2023-06-30T07:40:51.163Z,5.87
2023-06-30T07:45:00.193Z,6.73
2023-06-30T07:49:04.248Z,6.03
2023-06-30T07:53:09.762Z,6.30
2023-06-30T07:57:15.228Z,5.73
2023-06-30T08:01:18.923Z,6.07
2023-06-30T08:05:22.666Z,6.30
2023-06-30T08:09:26.784Z,5.70
2023-06-30T08:13:32.072Z,7.23
2023-06-30T08:17:50.955Z,6.13
2023-06-30T08:21:59.801Z,10.00
2023-06-30T08:26:03.684Z,6.77
2023-06-30T08:30:10.210Z,6.80
2023-06-30T08:34:14.032Z,6.57
2023-06-30T08:38:18.037Z,7.40
2023-06-30T08:42:27.187Z,7.63
2023-06-30T08:46:32.713Z,6.60
2023-06-30T08:50:36.934Z,6.80
2023-06-30T08:54:43.544Z,6.83
2023-06-30T08:58:47.427Z,5.90
2023-06-30T09:02:54.569Z,5.80
2023-06-30T09:07:01.331Z,6.37
2023-06-30T09:11:09.443Z,7.73
2023-06-30T09:15:19.301Z,4.87
2023-06-30T09:19:24.919Z,6.60
2023-06-30T09:23:29.960Z,5.17
2023-06-30T09:27:37.163Z,5.50
2023-06-30T09:31:42.291Z,5.50
2023-06-30T09:35:48.998Z,4.90
2023-06-30T09:39:54.138Z,5.50
2023-06-30T09:44:12.697Z,5.30
2023-06-30T09:48:16.614Z,5.00
2023-06-30T09:52:26.938Z,5.27
2023-06-30T09:56:30.846Z,5.47
2023-06-30T10:00:36.053Z,5.23
2023-06-30T10:04:41.068Z,5.60
2023-06-30T10:08:46.686Z,5.07
2023-06-30T10:12:51.393Z,4.70
2023-06-30T10:16:56.649Z,4.73
2023-06-30T10:21:00.583Z,4.40
2023-06-30T10:25:09.063Z,5.27
2023-06-30T10:29:13.143Z,5.10
2023-06-30T10:33:17.166Z,5.80
2023-06-30T10:37:21.890Z,4.80
2023-06-30T10:41:27.146Z,5.23
2023-06-30T10:45:32.103Z,5.47
2023-06-30T10:49:37.333Z,4.50
2023-06-30T10:53:45.162Z,5.07
2023-06-30T10:57:54.199Z,4.50
2023-06-30T11:02:34.298Z,7.73
2023-06-30T11:06:38.692Z,5.13
2023-06-30T11:10:49.391Z,4.40
2023-06-30T11:14:57.223Z,4.00
2023-06-30T11:19:05.823Z,4.97
2023-06-30T11:23:20.983Z,5.00
2023-06-30T11:27:33.897Z,5.10
2023-06-30T11:31:42.948Z,5.90
2023-06-30T11:55:57.995Z,4.87
2023-06-30T12:06:32.818Z,5.40
2023-06-30T13:34:49.155Z,4.10
2023-06-30T13:38:56.298Z,4.43
2023-06-30T13:47:18.390Z,4.37
2023-06-30T13:51:23.851Z,3.87
2023-06-30T13:55:29.584Z,4.30
2023-06-30T13:59:35.780Z,4.03
2023-06-30T14:03:41.512Z,4.50
2023-06-30T14:07:48.258Z,3.57
2023-06-30T14:11:52.069Z,3.53
2023-06-30T14:16:33.294Z,3.50
2023-06-30T14:21:06.801Z,4.57
2023-06-30T14:25:41.269Z,3.30
2023-06-30T14:29:52.739Z,3.70
2023-06-30T14:33:57.024Z,4.27
2023-06-30T14:38:00.961Z,4.17
2023-06-30T14:42:22.960Z,4.40
2023-06-30T14:46:43.224Z,3.90
2023-06-30T14:50:50.884Z,3.90
2023-06-30T14:55:05.136Z,3.80
2023-06-30T14:59:51.600Z,4.03
2023-06-30T15:03:56.967Z,3.87
2023-06-30T15:08:12.835Z,4.57
2023-06-30T15:12:29.339Z,4.30
2023-06-30T15:16:38.918Z,4.20
2023-06-30T15:21:09.056Z,3.97
2023-06-30T15:25:27.496Z,4.07
2023-06-30T15:29:48.046Z,4.03
2023-06-30T15:33:52.907Z,4.97
2023-06-30T15:37:58.292Z,4.10
2023-06-30T15:42:02.361Z,4.13
2023-06-30T15:46:06.215Z,4.93
2023-06-30T15:50:10.705Z,5.03
2023-06-30T15:54:16.149Z,4.37
2023-06-30T15:58:19.977Z,4.60
2023-06-30T16:02:32.445Z,5.43
2023-06-30T16:06:56.034Z,4.20
2023-06-30T16:11:47.670Z,4.73
2023-06-30T16:16:14.334Z,4.80
2023-06-30T16:20:18.215Z,4.77
2023-06-30T16:24:39.435Z,5.10
2023-06-30T16:28:54.552Z,5.30
2023-06-30T16:33:21.100Z,5.07
2023-06-30T16:37:34.570Z,5.80
2023-06-30T16:41:38.402Z,4.67
2023-06-30T16:45:52.621Z,5.80
2023-06-30T16:50:01.674Z,5.00
2023-06-30T16:54:09.783Z,4.90
2023-06-30T16:58:15.344Z,5.20
2023-06-30T17:02:52.289Z,5.00
2023-06-30T17:07:42.574Z,4.87
2023-06-30T17:11:53.091Z,5.70
2023-06-30T17:16:03.616Z,4.50
2023-06-30T17:20:12.631Z,5.17
2023-06-30T17:24:16.767Z,4.63
2023-06-30T17:28:22.752Z,5.30
2023-06-30T17:32:28.996Z,6.27
2023-06-30T17:37:01.049Z,5.07
2023-06-30T17:41:05.720Z,5.63
2023-06-30T17:45:10.295Z,5.50
2023-06-30T17:49:26.195Z,5.53
2023-06-30T17:53:33.838Z,5.13
2023-06-30T17:57:38.948Z,5.67
2023-06-30T18:02:00.261Z,6.20
2023-06-30T18:06:48.008Z,7.63
2023-06-30T18:11:13.657Z,5.63
2023-06-30T18:15:18.960Z,8.43
2023-06-30T18:20:00.245Z,5.93
2023-06-30T18:24:06.458Z,6.50
2023-06-30T18:28:28.171Z,5.87
2023-06-30T18:33:05.644Z,5.90
2023-06-30T18:37:11.046Z,5.87
2023-06-30T18:41:32.107Z,6.00
2023-06-30T18:45:45.478Z,7.00
2023-06-30T18:50:14.360Z,6.20
2023-06-30T18:54:26.218Z,5.57
2023-06-30T18:58:54.868Z,6.43
2023-06-30T19:03:35.185Z,6.63
2023-06-30T19:07:40.077Z,6.07
2023-06-30T19:11:47.131Z,7.13
2023-06-30T19:15:53.495Z,6.27
2023-06-30T19:20:01.649Z,7.13
2023-06-30T19:24:27.480Z,6.60
2023-06-30T19:29:28.041Z,7.00
2023-06-30T19:33:38.143Z,6.80
2023-06-30T19:37:47.314Z,7.10
2023-06-30T19:42:24.771Z,6.53
2023-06-30T19:46:31.002Z,7.03
2023-06-30T19:50:53.323Z,7.27
2023-06-30T19:55:36.378Z,6.77
2023-06-30T19:59:41.325Z,6.90
2023-06-30T20:03:47.988Z,6.90
2023-06-30T20:07:52.780Z,6.50
2023-06-30T20:12:01.022Z,7.13
2023-06-30T20:16:05.225Z,6.67
2023-06-30T20:20:27.828Z,6.73
2023-06-30T20:26:10.823Z,6.67
2023-06-30T20:41:05.680Z,6.00
2023-06-30T20:45:11.649Z,5.43
2023-06-30T20:49:16.315Z,5.90
2023-06-30T20:53:20.601Z,4.90
2023-06-30T20:57:26.884Z,5.40
2023-06-30T21:01:31.813Z,5.20
2023-06-30T21:05:36.141Z,8.27
2023-06-30T21:09:40.645Z,5.37
2023-06-30T21:13:46.568Z,6.77
2023-06-30T21:17:51.284Z,6.00
2023-06-30T21:21:58.011Z,4.73
2023-06-30T21:26:02.727Z,4.80
2023-06-30T21:30:10.941Z,4.77
2023-06-30T21:34:15.167Z,4.80
2023-06-30T21:38:19.897Z,4.90
2023-06-30T21:42:23.589Z,5.13
2023-06-30T21:46:28.941Z,4.90
2023-06-30T21:50:32.699Z,5.90
2023-06-30T21:54:47.299Z,5.43
2023-06-30T21:58:53.250Z,4.73
2023-06-30T22:02:59.017Z,4.63
2023-06-30T22:07:02.775Z,4.97
2023-06-30T22:11:06.592Z,4.10
2023-06-30T22:15:11.132Z,4.93
2023-06-30T22:19:16.585Z,5.73
2023-06-30T22:23:20.370Z,5.53
2023-06-30T22:27:24.074Z,4.43
2023-06-30T22:31:28.097Z,5.87
2023-06-30T22:35:33.309Z,6.00
2023-06-30T22:39:46.368Z,5.10
2023-06-30T22:44:05.398Z,4.73
2023-06-30T22:53:04.122Z,4.30
2023-06-30T22:57:10.262Z,4.83
2023-06-30T23:01:20.756Z,5.53
2023-06-30T23:05:44.359Z,5.37
2023-06-30T23:10:04.650Z,4.43
2023-06-30T23:14:17.083Z,4.77
2023-06-30T23:18:27.847Z,6.20
2023-06-30T23:22:33.128Z,5.93
2023-06-30T23:26:40.932Z,6.10
2023-06-30T23:30:49.082Z,5.50
2023-06-30T23:34:55.156Z,7.07
2023-06-30T23:39:09.754Z,5.57
2023-06-30T23:43:25.502Z,5.00
2023-06-30T23:47:33.112Z,5.53
2023-06-30T23:52:02.968Z,5.13
